PHKLQ EDLW-EDLW

Flight info

Callsign PHKLQ
Flight time N/A
Altitude 2000
Route EDLWN EDLWS
Aircraft A210/L-GOVY/S

Departure

Time 2026-04-30 10:24
Airport Dortmund Airport (EDLW)

Arrival

Time N/A
Airport Dortmund Airport (EDLW)
Time Latitude Longitude Altitude Speed Heading
2026-04-30 09:16 51.51465 7.61132 432 ft 0 kts 143°
2026-04-30 09:23 51.51466 7.61132 432 ft 0 kts 143°
2026-04-30 09:23 51.51465 7.61132 432 ft 0 kts 143°
2026-04-30 09:57 51.51466 7.61132 432 ft 0 kts 143°
2026-04-30 09:59 51.51545 7.61164 426 ft 0 kts 332°
2026-04-30 10:13 51.51546 7.61163 427 ft 0 kts 337°
2026-04-30 10:14 51.51548 7.61161 426 ft 1 kts 334°
2026-04-30 10:15 51.51554 7.61156 426 ft 4 kts 330°
2026-04-30 10:15 51.51597 7.61098 422 ft 10 kts 257°
2026-04-30 10:15 51.51573 7.60979 424 ft 9 kts 253°
2026-04-30 10:15 51.51562 7.60923 424 ft 0 kts 254°
2026-04-30 10:17 51.51546 7.60826 426 ft 11 kts 254°
2026-04-30 10:17 51.51528 7.60685 427 ft 9 kts 278°
2026-04-30 10:18 51.51528 7.60680 427 ft 0 kts 278°
2026-04-30 10:23 51.51549 7.60626 425 ft 12 kts 326°
2026-04-30 10:23 51.51643 7.60685 415 ft 16 kts 64°
2026-04-30 10:23 51.51775 7.61052 421 ft 57 kts 61°
2026-04-30 10:23 51.51984 7.61653 648 ft 53 kts 63°
2026-04-30 10:24 51.52206 7.62269 861 ft 57 kts 62°
2026-04-30 10:24 51.52475 7.62882 1082 ft 62 kts 62°
2026-04-30 10:24 51.52722 7.63501 1294 ft 64 kts 72°
2026-04-30 10:24 51.52994 7.64272 1342 ft 78 kts 64°
2026-04-30 10:25 51.53279 7.65076 1370 ft 82 kts 71°
2026-04-30 10:25 51.53590 7.65948 1402 ft 86 kts 50°
2026-04-30 10:25 51.54256 7.65973 1362 ft 107 kts 352°
2026-04-30 10:25 51.54984 7.65685 1399 ft 103 kts
2026-04-30 10:26 51.55696 7.65542 1443 ft 102 kts
2026-04-30 10:26 51.56387 7.65456 1499 ft 102 kts
2026-04-30 10:26 51.57114 7.65437 1507 ft 104 kts 11°
2026-04-30 10:26 51.57865 7.65493 1561 ft 99 kts 15°
2026-04-30 10:27 51.58568 7.65473 1545 ft 102 kts
2026-04-30 10:27 51.59298 7.65463 1502 ft 107 kts
2026-04-30 10:27 51.60037 7.65383 1536 ft 104 kts
2026-04-30 10:27 51.60773 7.65407 1520 ft 105 kts 14°
2026-04-30 10:28 51.61505 7.65445 1538 ft 102 kts 13°
2026-04-30 10:28 51.62239 7.65409 1515 ft 105 kts
2026-04-30 10:28 51.63006 7.65348 1477 ft 111 kts
2026-04-30 10:28 51.63763 7.65364 1510 ft 103 kts 15°
2026-04-30 10:29 51.64465 7.65476 1527 ft 99 kts 18°
2026-04-30 10:29 51.65085 7.65862 1544 ft 87 kts 63°
2026-04-30 10:29 51.65440 7.66730 1532 ft 88 kts 70°
2026-04-30 10:29 51.65686 7.67658 1527 ft 87 kts 79°
2026-04-30 10:30 51.65876 7.68590 1549 ft 85 kts 78°
2026-04-30 10:30 51.66050 7.69532 1510 ft 90 kts 80°
2026-04-30 10:30 51.66213 7.70276 1477 ft 93 kts 78°